createdAt,value
2023-02-08T00:00:05.914Z,48.10
2023-02-08T00:01:05.936Z,48.15
2023-02-08T00:02:05.901Z,46.50
2023-02-08T00:03:05.888Z,51.13
2023-02-08T00:04:05.916Z,51.71
2023-02-08T00:05:05.894Z,52.05
2023-02-08T00:06:05.920Z,51.93
2023-02-08T00:07:05.863Z,59.01
2023-02-08T00:08:05.873Z,53.07
2023-02-08T00:09:05.854Z,48.19
2023-02-08T00:10:05.865Z,48.02
2023-02-08T00:11:05.883Z,45.53
2023-02-08T00:12:05.825Z,50.54
2023-02-08T00:13:05.823Z,49.41
2023-02-08T00:14:05.817Z,49.54
2023-02-08T00:15:05.805Z,49.07
2023-02-08T00:16:05.866Z,51.10
2023-02-08T00:17:05.785Z,54.33
2023-02-08T00:18:05.780Z,51.23
2023-02-08T00:19:05.776Z,47.75
2023-02-08T00:20:05.769Z,54.87
2023-02-08T00:21:05.793Z,53.29
2023-02-08T00:22:05.751Z,51.10
2023-02-08T00:23:05.749Z,52.78
2023-02-08T00:24:05.748Z,51.60
2023-02-08T00:25:05.732Z,54.64
2023-02-08T00:26:05.780Z,48.13
2023-02-08T00:27:05.722Z,49.55
2023-02-08T00:28:08.382Z,46.37
2023-02-08T00:29:05.703Z,53.43
2023-02-08T00:30:05.716Z,50.53
2023-02-08T00:31:05.804Z,57.02
2023-02-08T00:32:05.714Z,53.35
2023-02-08T00:33:05.676Z,49.63
2023-02-08T00:34:05.662Z,52.10
2023-02-08T00:35:05.656Z,53.56
2023-02-08T00:36:05.673Z,49.98
2023-02-08T00:37:05.683Z,56.79
2023-02-08T00:38:05.633Z,56.90
2023-02-08T00:39:05.637Z,47.91
2023-02-08T00:40:05.630Z,58.76
2023-02-08T00:41:05.643Z,60.39
2023-02-08T00:42:05.602Z,60.01
2023-02-08T00:43:05.612Z,60.72
2023-02-08T00:44:05.596Z,60.77
2023-02-08T00:45:05.588Z,61.11
2023-02-08T00:46:05.629Z,63.00
2023-02-08T00:47:05.571Z,61.59
2023-02-08T00:48:05.584Z,61.52
2023-02-08T00:49:05.575Z,61.31
2023-02-08T00:50:05.564Z,61.06
2023-02-08T00:51:05.582Z,61.12
2023-02-08T00:52:05.549Z,61.00
2023-02-08T00:53:05.536Z,60.74
2023-02-08T00:54:05.529Z,62.48
2023-02-08T00:55:05.525Z,60.88
2023-02-08T00:56:05.574Z,60.39
2023-02-08T00:57:05.502Z,60.46
2023-02-08T00:58:05.496Z,59.98
2023-02-08T00:59:05.638Z,60.43
2023-02-08T01:00:05.511Z,60.14
2023-02-08T01:01:05.530Z,59.85
2023-02-08T01:02:05.494Z,61.70
2023-02-08T01:03:05.463Z,59.92
2023-02-08T01:04:05.455Z,60.99
2023-02-08T01:05:05.463Z,62.02
2023-02-08T01:06:05.468Z,60.15
2023-02-08T01:07:05.432Z,60.07
2023-02-08T01:08:05.526Z,59.92
2023-02-08T01:09:05.451Z,59.35
2023-02-08T01:10:05.412Z,59.43
2023-02-08T01:11:05.436Z,59.52
2023-02-08T01:12:05.401Z,61.68
2023-02-08T01:13:06.418Z,59.25
2023-02-08T01:14:05.443Z,59.17
2023-02-08T01:15:05.372Z,59.04
2023-02-08T01:16:05.368Z,46.76
2023-02-08T01:17:05.392Z,50.43
2023-02-08T01:18:05.537Z,50.08
2023-02-08T01:19:05.353Z,46.99
2023-02-08T01:20:05.339Z,45.64
2023-02-08T01:21:05.332Z,43.01
2023-02-08T01:22:05.361Z,49.17
2023-02-08T01:23:05.319Z,50.40
2023-02-08T01:24:05.321Z,48.11
2023-02-08T01:25:05.315Z,60.48
2023-02-08T01:26:05.296Z,62.47
2023-02-08T01:27:05.312Z,60.70
2023-02-08T01:28:05.352Z,60.07
2023-02-08T01:29:05.267Z,60.85
2023-02-08T01:30:05.261Z,61.45
2023-02-08T01:31:05.359Z,61.48
2023-02-08T01:32:05.272Z,60.95
2023-02-08T01:33:05.242Z,59.75
2023-02-08T01:34:05.236Z,60.10
2023-02-08T01:35:05.218Z,62.78
2023-02-08T01:36:06.219Z,62.11
2023-02-08T01:37:05.234Z,60.53
2023-02-08T01:38:05.198Z,60.47
2023-02-08T01:39:05.198Z,60.42
2023-02-08T01:40:05.196Z,61.67
2023-02-08T01:41:05.180Z,60.69
2023-02-08T01:42:05.205Z,60.66
2023-02-08T01:43:05.170Z,61.36
2023-02-08T01:44:05.159Z,60.30
2023-02-08T01:45:05.169Z,60.22
2023-02-08T01:46:05.200Z,60.43
2023-02-08T01:47:05.154Z,61.22
2023-02-08T01:48:05.153Z,60.51
2023-02-08T01:49:05.129Z,60.26
2023-02-08T01:50:05.113Z,60.51
2023-02-08T01:51:05.102Z,63.88
2023-02-08T01:52:05.133Z,60.45
2023-02-08T01:53:05.096Z,60.75
2023-02-08T01:54:05.167Z,62.49
2023-02-08T01:55:05.081Z,60.64
2023-02-08T01:56:05.067Z,60.49
2023-02-08T01:57:05.088Z,61.75
2023-02-08T01:58:05.044Z,59.91
2023-02-08T01:59:06.053Z,60.31
2023-02-08T02:00:05.040Z,61.67
2023-02-08T02:01:05.061Z,63.21
2023-02-08T02:02:05.060Z,60.46
2023-02-08T02:03:05.017Z,60.37
2023-02-08T02:04:05.046Z,60.52
2023-02-08T02:05:05.016Z,60.57
2023-02-08T02:06:04.999Z,60.69
2023-02-08T02:07:05.022Z,60.48
2023-02-08T02:08:04.986Z,60.34
2023-02-08T02:09:04.972Z,60.63
2023-02-08T02:10:04.971Z,60.68
2023-02-08T02:11:04.964Z,63.98
2023-02-08T02:12:04.984Z,61.96
2023-02-08T02:13:04.978Z,60.42
2023-02-08T02:14:04.963Z,60.82
2023-02-08T02:15:04.928Z,60.50
2023-02-08T02:16:04.952Z,60.64
2023-02-08T02:17:05.251Z,63.62
2023-02-08T02:18:04.922Z,60.59
2023-02-08T02:19:04.896Z,60.52
2023-02-08T02:20:04.910Z,61.93
2023-02-08T02:21:04.884Z,61.70
2023-02-08T02:22:04.897Z,60.41
2023-02-08T02:23:04.867Z,60.44
2023-02-08T02:24:04.867Z,60.46
2023-02-08T02:25:04.858Z,60.26
2023-02-08T02:26:04.842Z,61.98
2023-02-08T02:27:04.881Z,60.56
2023-02-08T02:28:04.864Z,60.84
2023-02-08T02:29:04.839Z,60.69
2023-02-08T02:30:04.827Z,60.39
2023-02-08T02:31:04.828Z,62.92
2023-02-08T02:32:04.842Z,60.75
2023-02-08T02:33:04.800Z,60.78
2023-02-08T02:34:04.808Z,62.39
2023-02-08T02:35:04.792Z,60.46
2023-02-08T02:36:04.776Z,60.36
2023-02-08T02:37:04.772Z,60.06
2023-02-08T02:38:04.785Z,62.10
2023-02-08T02:39:04.762Z,60.03
2023-02-08T02:40:04.747Z,59.89
2023-02-08T02:41:04.745Z,61.10
2023-02-08T02:42:04.733Z,62.19
2023-02-08T02:43:04.757Z,60.56
2023-02-08T02:44:04.745Z,60.20
2023-02-08T02:45:04.935Z,60.20
2023-02-08T02:46:04.752Z,60.03
2023-02-08T02:47:04.699Z,60.68
2023-02-08T02:48:04.722Z,60.51
2023-02-08T02:49:04.731Z,60.50
2023-02-08T02:50:04.711Z,60.64
2023-02-08T02:51:04.673Z,60.46
2023-02-08T02:52:04.669Z,60.30
2023-02-08T02:53:04.695Z,60.43
2023-02-08T02:54:04.665Z,60.58
2023-02-08T02:55:04.713Z,60.47
2023-02-08T02:56:04.645Z,60.49
2023-02-08T02:57:04.637Z,60.47
2023-02-08T02:58:04.667Z,63.16
2023-02-08T02:59:04.624Z,60.56
2023-02-08T03:00:04.608Z,60.55
2023-02-08T03:01:04.672Z,60.82
2023-02-08T03:02:04.611Z,60.35
2023-02-08T03:03:04.619Z,60.38
2023-02-08T03:04:04.689Z,60.61
2023-02-08T03:05:04.595Z,60.31
2023-02-08T03:06:04.573Z,60.20
2023-02-08T03:07:04.583Z,60.98
2023-02-08T03:08:05.690Z,60.64
2023-02-08T03:09:04.550Z,60.39
2023-02-08T03:10:04.541Z,60.41
2023-02-08T03:11:04.529Z,60.29
2023-02-08T03:12:04.527Z,60.56
2023-02-08T03:13:04.549Z,60.44
2023-02-08T03:14:04.554Z,60.52
2023-02-08T03:15:04.503Z,60.30
2023-02-08T03:16:04.501Z,60.43
2023-02-08T03:17:04.655Z,60.20
2023-02-08T03:18:04.522Z,60.39
2023-02-08T03:19:04.476Z,60.49
2023-02-08T03:20:04.470Z,60.35
2023-02-08T03:21:04.466Z,60.45
2023-02-08T03:22:04.458Z,60.19
2023-02-08T03:23:04.473Z,60.49
2023-02-08T03:24:04.447Z,60.19
2023-02-08T03:25:04.504Z,62.87
2023-02-08T03:26:04.424Z,60.21
2023-02-08T03:27:04.419Z,60.40
2023-02-08T03:28:04.518Z,60.24
2023-02-08T03:29:04.416Z,60.00
2023-02-08T03:30:04.402Z,60.15
2023-02-08T03:31:04.491Z,59.95
2023-02-08T03:32:04.381Z,60.13
2023-02-08T03:33:04.396Z,60.17
2023-02-08T03:34:04.362Z,60.26
2023-02-08T03:35:04.421Z,59.90
2023-02-08T03:36:04.427Z,60.02
2023-02-08T03:37:04.355Z,60.26
2023-02-08T03:38:04.371Z,60.46
2023-02-08T03:39:04.332Z,60.40
2023-02-08T03:40:04.326Z,60.11
2023-02-08T03:41:04.318Z,60.39
2023-02-08T03:42:04.307Z,60.83
2023-02-08T03:43:04.345Z,60.32
2023-02-08T03:44:04.294Z,60.28
2023-02-08T03:45:04.296Z,61.52
2023-02-08T03:46:04.307Z,60.23
2023-02-08T03:47:04.322Z,60.42
2023-02-08T03:48:04.322Z,61.28
2023-02-08T03:49:04.261Z,61.25
2023-02-08T03:50:04.263Z,60.52
2023-02-08T03:51:04.248Z,60.36
2023-02-08T03:52:04.249Z,60.03
2023-02-08T03:53:04.239Z,60.07
2023-02-08T03:54:04.251Z,60.50
2023-02-08T03:55:04.222Z,59.89
2023-02-08T03:56:04.211Z,60.08
2023-02-08T03:57:04.212Z,60.83
2023-02-08T03:58:04.189Z,59.86
2023-02-08T03:59:04.242Z,60.26
2023-02-08T04:00:04.177Z,60.16
2023-02-08T04:01:04.260Z,60.29
2023-02-08T04:02:04.173Z,60.26
2023-02-08T04:03:04.155Z,60.20
2023-02-08T04:04:04.176Z,60.25
2023-02-08T04:05:04.152Z,59.92
2023-02-08T04:06:04.167Z,60.52
2023-02-08T04:07:04.137Z,60.05
2023-02-08T04:08:04.128Z,60.13
2023-02-08T04:09:04.177Z,61.15
2023-02-08T04:10:04.105Z,60.02
2023-02-08T04:11:04.103Z,60.09
2023-02-08T04:12:04.101Z,59.65
2023-02-08T04:13:04.084Z,60.27
2023-02-08T04:14:04.107Z,60.00
2023-02-08T04:15:04.071Z,60.04
2023-02-08T04:16:04.103Z,60.23
2023-02-08T04:17:04.055Z,60.65
2023-02-08T04:18:04.062Z,59.79
2023-02-08T04:19:04.082Z,59.94
2023-02-08T04:20:04.035Z,59.75
2023-02-08T04:21:04.030Z,60.03
2023-02-08T04:22:04.016Z,60.10
2023-02-08T04:23:04.026Z,59.87
2023-02-08T04:24:04.027Z,60.64
2023-02-08T04:25:03.992Z,59.81
2023-02-08T04:26:04.006Z,60.38
2023-02-08T04:27:05.908Z,60.02
2023-02-08T04:28:05.040Z,60.07
2023-02-08T04:29:03.989Z,60.60
2023-02-08T04:30:03.962Z,60.41
2023-02-08T04:31:04.951Z,63.42
2023-02-08T04:32:03.942Z,60.31
2023-02-08T04:33:03.964Z,60.27
2023-02-08T04:34:03.965Z,60.27
2023-02-08T04:35:03.938Z,60.48
2023-02-08T04:36:03.936Z,60.04
2023-02-08T04:37:03.915Z,60.12
2023-02-08T04:38:03.899Z,60.19
2023-02-08T04:39:03.929Z,60.27
2023-02-08T04:40:04.120Z,59.69
2023-02-08T04:41:03.883Z,60.29
2023-02-08T04:42:03.877Z,60.46
2023-02-08T04:43:04.876Z,60.45
2023-02-08T04:44:03.899Z,60.53
2023-02-08T04:45:03.850Z,60.65
2023-02-08T04:46:03.880Z,60.34
2023-02-08T04:47:03.846Z,60.72
2023-02-08T04:48:03.833Z,60.66
2023-02-08T04:49:03.895Z,60.70
2023-02-08T04:50:03.827Z,60.94
2023-02-08T04:51:03.817Z,60.57
2023-02-08T04:52:03.811Z,60.45
2023-02-08T04:53:03.808Z,60.43
2023-02-08T04:54:03.837Z,60.62
2023-02-08T04:55:03.787Z,60.27
2023-02-08T04:56:03.794Z,60.40
2023-02-08T04:57:03.769Z,60.45
2023-02-08T04:58:03.793Z,60.93
2023-02-08T04:59:03.789Z,60.01
2023-02-08T05:00:04.746Z,60.01
2023-02-08T05:01:03.737Z,60.29
2023-02-08T05:02:03.789Z,60.18
2023-02-08T05:03:03.901Z,60.72
2023-02-08T05:04:03.755Z,60.05
2023-02-08T05:07:36.744Z,51.56
2023-02-08T05:08:36.737Z,55.12
2023-02-08T05:09:37.089Z,55.70
2023-02-08T05:10:36.716Z,55.45
2023-02-08T05:11:36.713Z,56.83
2023-02-08T05:12:36.709Z,57.18
2023-02-08T05:13:36.699Z,56.33
2023-02-08T05:14:37.072Z,57.02
2023-02-08T05:15:36.890Z,55.17
2023-02-08T05:16:36.677Z,53.74
2023-02-08T05:17:36.670Z,58.48
2023-02-08T05:18:36.659Z,55.78
2023-02-08T05:19:36.685Z,60.43
2023-02-08T05:20:36.652Z,63.19
2023-02-08T05:21:36.641Z,61.20
2023-02-08T05:22:36.629Z,61.41
2023-02-08T05:23:36.645Z,61.01
2023-02-08T05:24:36.641Z,61.58
2023-02-08T05:25:36.607Z,61.42
2023-02-08T05:26:36.601Z,60.42
2023-02-08T05:27:36.604Z,61.44
2023-02-08T05:28:36.606Z,62.47
2023-02-08T05:29:36.609Z,61.44
2023-02-08T05:30:36.573Z,61.43
2023-02-08T05:31:36.679Z,60.94
2023-02-08T05:32:36.557Z,61.13
2023-02-08T05:33:36.563Z,61.16
2023-02-08T05:34:37.724Z,61.27
2023-02-08T05:35:37.665Z,63.15
2023-02-08T05:36:37.691Z,60.91
2023-02-08T05:37:37.665Z,61.87
2023-02-08T05:38:37.677Z,61.58
2023-02-08T05:39:37.668Z,61.55
2023-02-08T05:40:37.633Z,61.89
2023-02-08T05:41:37.653Z,61.85
2023-02-08T05:42:37.637Z,64.27
2023-02-08T05:43:37.610Z,62.82
2023-02-08T05:44:37.641Z,61.27
2023-02-08T05:45:37.599Z,61.54
2023-02-08T05:46:38.447Z,62.59
2023-02-08T05:47:38.580Z,61.62
2023-02-08T05:48:37.599Z,61.82
2023-02-08T05:49:37.669Z,61.67
2023-02-08T05:50:37.633Z,62.23
2023-02-08T05:51:37.555Z,60.89
2023-02-08T05:52:37.541Z,61.62
2023-02-08T05:53:37.537Z,61.84
2023-02-08T05:54:37.566Z,60.97
2023-02-08T05:55:37.546Z,61.23
2023-02-08T05:56:37.561Z,62.18
2023-02-08T05:57:37.523Z,61.05
2023-02-08T05:58:37.503Z,61.31
2023-02-08T05:59:37.532Z,60.88
2023-02-08T06:00:37.494Z,60.12
2023-02-08T06:01:37.482Z,56.37
2023-02-08T06:02:37.593Z,57.33
2023-02-08T06:03:37.468Z,57.50
2023-02-08T06:04:39.097Z,57.47
2023-02-08T06:05:38.456Z,61.03
2023-02-08T06:06:37.459Z,57.85
2023-02-08T06:07:37.439Z,57.77
2023-02-08T06:08:37.432Z,58.67
2023-02-08T06:09:37.428Z,58.73
2023-02-08T06:10:37.444Z,56.00
2023-02-08T06:11:37.405Z,55.89
2023-02-08T06:12:37.407Z,57.86
2023-02-08T06:13:37.388Z,57.06
2023-02-08T06:14:37.411Z,57.94
2023-02-08T06:15:37.387Z,58.09
2023-02-08T06:16:37.424Z,59.60
2023-02-08T06:17:37.363Z,55.21
2023-02-08T06:18:37.387Z,58.28
2023-02-08T06:19:37.342Z,56.67
2023-02-08T06:20:37.369Z,64.75
2023-02-08T06:21:37.327Z,57.67
2023-02-08T06:22:37.319Z,58.14
2023-02-08T06:23:37.313Z,61.35
2023-02-08T06:24:37.374Z,56.22
2023-02-08T06:25:37.301Z,58.40
2023-02-08T06:26:37.300Z,58.60
2023-02-08T06:27:37.294Z,57.88
2023-02-08T06:28:37.277Z,57.98
2023-02-08T06:29:37.266Z,62.69
2023-02-08T06:30:37.284Z,58.83
2023-02-08T06:31:37.314Z,56.80
2023-02-08T06:32:37.322Z,58.58
2023-02-08T06:33:37.261Z,73.79
2023-02-08T06:34:37.232Z,75.99
2023-02-08T06:35:37.268Z,76.24
2023-02-08T06:36:37.219Z,76.37
2023-02-08T06:37:37.218Z,60.12
2023-02-08T06:38:37.204Z,59.57
2023-02-08T06:39:37.197Z,59.46
2023-02-08T06:40:37.225Z,59.96
2023-02-08T06:41:37.189Z,60.52
2023-02-08T06:42:37.175Z,54.97
2023-02-08T06:43:37.166Z,56.91
2023-02-08T06:44:37.166Z,58.22
2023-02-08T06:45:37.188Z,54.87
2023-02-08T06:46:37.182Z,55.05
2023-02-08T06:47:37.144Z,56.93
2023-02-08T06:48:37.265Z,56.01
2023-02-08T06:49:37.124Z,55.52
2023-02-08T06:50:37.145Z,52.83
2023-02-08T06:51:37.111Z,59.92
2023-02-08T06:52:37.108Z,52.85
2023-02-08T06:53:37.097Z,54.82
2023-02-08T06:54:37.098Z,59.73
2023-02-08T06:55:37.120Z,55.23
2023-02-08T06:56:37.086Z,55.20
2023-02-08T06:57:37.078Z,55.73
2023-02-08T06:58:37.060Z,57.77
2023-02-08T06:59:37.076Z,57.14
2023-02-08T07:00:37.070Z,54.82
2023-02-08T07:01:37.042Z,57.74
2023-02-08T07:02:37.114Z,55.28
2023-02-08T07:03:37.029Z,56.89
2023-02-08T07:04:37.042Z,56.86
2023-02-08T07:05:37.056Z,54.59
2023-02-08T07:06:37.013Z,55.37
2023-02-08T07:07:37.028Z,57.79
2023-02-08T07:08:37.001Z,59.12
2023-02-08T07:09:36.993Z,55.80
2023-02-08T07:10:37.031Z,54.92
2023-02-08T07:11:37.010Z,58.48
2023-02-08T07:12:36.966Z,56.34
2023-02-08T07:13:36.957Z,58.39
2023-02-08T07:14:36.958Z,54.80
2023-02-08T07:15:36.970Z,58.24
2023-02-08T07:16:37.091Z,57.10
2023-02-08T07:17:36.962Z,58.78
2023-02-08T07:18:36.930Z,56.34
2023-02-08T07:19:36.933Z,55.99
2023-02-08T07:20:36.935Z,56.54
2023-02-08T07:21:36.905Z,55.39
2023-02-08T07:22:36.893Z,57.99
2023-02-08T07:23:36.883Z,57.01
2023-02-08T07:24:36.888Z,55.79
2023-02-08T07:25:36.898Z,57.10
2023-02-08T07:26:36.878Z,57.15
2023-02-08T07:27:36.877Z,57.95
2023-02-08T07:28:36.853Z,57.45
2023-02-08T07:29:36.866Z,57.15
2023-02-08T07:30:36.920Z,55.34
2023-02-08T07:31:36.888Z,56.57
2023-02-08T07:32:36.829Z,56.80
2023-02-08T07:33:36.812Z,55.08
2023-02-08T07:34:36.818Z,53.37
2023-02-08T07:35:36.832Z,56.96
2023-02-08T07:36:36.801Z,55.09
2023-02-08T07:37:36.803Z,59.04
2023-02-08T07:38:36.780Z,56.62
2023-02-08T07:39:36.877Z,54.08
2023-02-08T07:40:36.792Z,58.87
2023-02-08T07:41:36.760Z,57.23
2023-02-08T07:42:36.753Z,56.12
2023-02-08T07:43:36.749Z,56.20
2023-02-08T07:44:36.740Z,58.59
2023-02-08T07:45:37.761Z,57.63
2023-02-08T07:46:36.768Z,54.31
2023-02-08T07:47:36.748Z,58.44
2023-02-08T07:48:39.151Z,57.30
2023-02-08T07:49:36.702Z,56.86
2023-02-08T07:50:36.726Z,60.84
2023-02-08T07:51:36.688Z,59.01
2023-02-08T07:52:36.686Z,56.19
2023-02-08T07:53:36.688Z,57.03
2023-02-08T07:54:36.703Z,55.17
2023-02-08T07:55:36.686Z,56.29
2023-02-08T07:56:36.658Z,56.30
2023-02-08T07:57:36.668Z,54.71
2023-02-08T07:58:36.662Z,59.64
2023-02-08T07:59:36.650Z,61.48
2023-02-08T08:00:36.666Z,55.99
2023-02-08T08:01:36.663Z,57.47
2023-02-08T08:02:36.623Z,58.00
2023-02-08T08:03:36.652Z,59.76
2023-02-08T08:04:36.599Z,55.08
2023-02-08T08:05:36.621Z,57.38
2023-02-08T08:06:36.596Z,59.41
2023-02-08T08:07:36.586Z,57.55
2023-02-08T08:08:36.579Z,57.80
2023-02-08T08:09:36.571Z,56.04
2023-02-08T08:10:36.592Z,57.11
2023-02-08T08:11:36.556Z,57.07
2023-02-08T08:12:36.556Z,56.81
2023-02-08T08:13:36.551Z,55.65
2023-02-08T08:14:36.545Z,57.81
2023-02-08T08:15:36.564Z,55.43
2023-02-08T08:16:36.578Z,57.09
2023-02-08T08:17:36.528Z,62.56
2023-02-08T08:18:36.509Z,54.83
2023-02-08T08:19:36.510Z,56.79
2023-02-08T08:20:36.519Z,57.49
2023-02-08T08:21:36.492Z,62.45
2023-02-08T08:22:36.485Z,56.99
2023-02-08T08:23:36.464Z,58.61
2023-02-08T08:24:36.466Z,57.91
2023-02-08T08:25:36.503Z,57.63
2023-02-08T08:26:36.454Z,57.66
2023-02-08T08:27:36.446Z,54.57
2023-02-08T08:28:36.461Z,58.48
2023-02-08T08:29:36.440Z,53.70
2023-02-08T08:30:36.453Z,57.54
2023-02-08T08:31:36.550Z,57.76
2023-02-08T08:32:36.397Z,55.00
2023-02-08T08:33:37.483Z,58.13
2023-02-08T08:34:36.388Z,53.25
2023-02-08T08:35:36.384Z,56.37
2023-02-08T08:36:36.401Z,58.29
2023-02-08T08:37:36.371Z,55.57
2023-02-08T08:38:36.367Z,56.97
2023-02-08T08:39:36.358Z,56.78
2023-02-08T08:40:36.345Z,54.37
2023-02-08T08:41:36.364Z,57.12
2023-02-08T08:42:36.332Z,60.97
2023-02-08T08:43:36.322Z,56.63
2023-02-08T08:44:36.361Z,56.61
2023-02-08T08:45:36.327Z,58.09
2023-02-08T08:46:36.366Z,57.76
2023-02-08T08:47:37.296Z,57.51
2023-02-08T08:48:36.289Z,55.19
2023-02-08T08:49:36.285Z,53.86
2023-02-08T08:50:36.273Z,55.04
2023-02-08T08:51:36.296Z,56.79
2023-02-08T08:52:36.273Z,57.01
2023-02-08T08:53:36.256Z,55.52
2023-02-08T08:54:36.244Z,59.56
2023-02-08T08:55:36.264Z,59.02
2023-02-08T08:56:36.257Z,55.07
2023-02-08T08:57:36.223Z,57.49
2023-02-08T08:58:37.240Z,55.44
2023-02-08T08:59:36.209Z,54.68
2023-02-08T09:00:36.204Z,54.67
2023-02-08T09:01:36.243Z,55.46
2023-02-08T09:02:36.186Z,49.91
2023-02-08T09:03:36.212Z,57.35
2023-02-08T09:04:36.169Z,59.65
2023-02-08T09:05:36.167Z,56.76
2023-02-08T09:06:36.177Z,52.35
2023-02-08T09:07:36.144Z,55.57
2023-02-08T09:08:36.164Z,58.24
2023-02-08T09:09:36.143Z,56.00
2023-02-08T09:10:36.159Z,56.82
2023-02-08T09:11:36.180Z,58.80
2023-02-08T09:12:36.176Z,57.36
2023-02-08T09:13:36.105Z,54.03
2023-02-08T09:14:36.094Z,56.96
2023-02-08T09:15:36.091Z,55.17
2023-02-08T09:16:36.101Z,56.05
2023-02-08T09:17:36.068Z,57.83
2023-02-08T09:18:36.070Z,56.95
2023-02-08T09:19:36.052Z,57.26
2023-02-08T09:20:36.043Z,56.83
2023-02-08T09:21:36.571Z,57.65
2023-02-08T09:22:36.035Z,56.17
2023-02-08T09:23:36.029Z,61.28
2023-02-08T09:24:36.028Z,57.24
2023-02-08T09:25:36.014Z,54.58
2023-02-08T09:26:36.046Z,55.30
2023-02-08T09:27:35.997Z,57.98
2023-02-08T09:28:35.989Z,54.57
2023-02-08T09:29:35.980Z,61.31
2023-02-08T09:30:35.991Z,58.78
2023-02-08T09:31:36.074Z,55.36
2023-02-08T09:32:35.958Z,58.80
2023-02-08T09:33:35.953Z,59.07
2023-02-08T09:34:35.946Z,54.38
2023-02-08T09:35:35.962Z,49.87
2023-02-08T09:36:35.960Z,56.08
2023-02-08T09:37:35.927Z,60.11
2023-02-08T09:38:35.921Z,55.19
2023-02-08T09:39:35.916Z,57.43
2023-02-08T09:40:35.915Z,60.01
2023-02-08T09:41:35.932Z,60.95
2023-02-08T09:42:35.906Z,62.06
2023-02-08T09:43:35.890Z,62.30
2023-02-08T09:44:35.874Z,62.68
2023-02-08T09:45:35.871Z,62.03
2023-02-08T09:46:35.913Z,62.56
2023-02-08T09:47:36.346Z,62.56
2023-02-08T09:48:36.854Z,62.05
2023-02-08T09:49:35.901Z,61.56
2023-02-08T09:50:35.847Z,60.57
2023-02-08T09:51:35.853Z,61.76
2023-02-08T09:52:35.820Z,61.89
2023-02-08T09:53:35.814Z,61.16
2023-02-08T09:54:35.809Z,60.35
2023-02-08T09:55:35.799Z,61.02
2023-02-08T09:56:35.820Z,61.05
2023-02-08T09:57:35.795Z,60.48
2023-02-08T09:58:35.779Z,61.74
2023-02-08T09:59:35.788Z,62.30
2023-02-08T10:00:35.822Z,61.74
2023-02-08T10:01:35.790Z,62.10
2023-02-08T10:02:35.753Z,61.15
2023-02-08T10:03:35.861Z,61.16
2023-02-08T10:04:35.737Z,60.57
2023-02-08T10:05:35.732Z,61.26
2023-02-08T10:06:35.760Z,61.08
2023-02-08T10:07:35.732Z,62.90
2023-02-08T10:08:35.812Z,61.75
2023-02-08T10:09:35.706Z,58.81
2023-02-08T10:10:35.699Z,59.72
2023-02-08T10:11:35.712Z,59.26
2023-02-08T10:12:35.710Z,57.41
2023-02-08T10:13:41.401Z,57.41
2023-02-08T10:14:37.664Z,55.12
2023-02-08T10:15:35.658Z,57.19
2023-02-08T10:16:35.748Z,56.52
2023-02-08T10:17:35.643Z,56.58
2023-02-08T10:18:35.634Z,56.55
2023-02-08T10:19:35.624Z,57.86
2023-02-08T10:20:35.626Z,58.30
2023-02-08T10:21:35.641Z,59.01
2023-02-08T10:22:35.598Z,55.92
2023-02-08T10:23:35.598Z,57.38
2023-02-08T10:24:35.584Z,56.37
2023-02-08T10:25:35.577Z,67.52
2023-02-08T10:26:35.714Z,57.06
2023-02-08T10:27:35.595Z,57.36
2023-02-08T10:28:35.620Z,56.05
2023-02-08T10:29:36.574Z,62.26
2023-02-08T10:30:35.556Z,57.77
2023-02-08T10:31:35.590Z,58.97
2023-02-08T10:32:35.568Z,58.30
2023-02-08T10:33:35.519Z,59.13
2023-02-08T10:34:35.503Z,59.04
2023-02-08T10:35:35.621Z,57.49
2023-02-08T10:36:35.491Z,57.08
2023-02-08T10:37:35.516Z,55.60
2023-02-08T10:38:45.986Z,56.97
2023-02-08T10:39:37.472Z,56.83
2023-02-08T10:40:35.474Z,59.78
2023-02-08T10:41:35.462Z,55.56
2023-02-08T10:42:35.477Z,56.27
2023-02-08T10:43:35.465Z,56.66
2023-02-08T10:44:35.445Z,60.75
2023-02-08T10:45:35.492Z,57.13
2023-02-08T10:46:35.413Z,56.38
2023-02-08T10:47:35.426Z,59.06
2023-02-08T10:48:35.393Z,56.75
2023-02-08T10:49:35.403Z,57.60
2023-02-08T10:50:35.394Z,55.80
2023-02-08T10:51:35.416Z,55.10
2023-02-08T10:52:35.425Z,59.71
2023-02-08T10:53:35.352Z,58.82
2023-02-08T10:54:35.360Z,55.42
2023-02-08T10:55:36.401Z,59.91
2023-02-08T10:56:36.336Z,58.59
2023-02-08T10:57:35.358Z,53.11
2023-02-08T10:58:35.344Z,51.69
2023-02-08T10:59:35.311Z,58.87
2023-02-08T11:00:35.370Z,60.82
2023-02-08T11:01:35.314Z,63.52
2023-02-08T11:02:35.328Z,61.61
2023-02-08T11:03:35.292Z,61.16
2023-02-08T11:04:35.315Z,62.37
2023-02-08T11:06:07.946Z,61.40
2023-02-08T11:06:35.264Z,62.13
2023-02-08T11:07:36.644Z,61.14
2023-02-08T11:08:36.366Z,64.29
2023-02-08T11:09:35.263Z,60.82
2023-02-08T11:10:35.233Z,61.67
2023-02-08T11:11:35.947Z,64.81
2023-02-08T11:12:35.269Z,61.67
2023-02-08T11:13:36.659Z,62.89
2023-02-08T11:14:46.346Z,60.74
2023-02-08T11:15:37.211Z,60.56
2023-02-08T11:16:35.257Z,60.75
2023-02-08T11:17:35.249Z,62.00
2023-02-08T11:18:35.167Z,59.98
2023-02-08T11:19:35.547Z,54.44
2023-02-08T11:20:36.169Z,55.70
2023-02-08T11:21:35.145Z,56.60
2023-02-08T11:22:35.136Z,56.55
2023-02-08T11:23:35.194Z,57.19
2023-02-08T11:24:35.126Z,57.50
2023-02-08T11:25:35.996Z,56.92
2023-02-08T11:26:36.126Z,57.36
2023-02-08T11:27:35.094Z,55.35
2023-02-08T11:28:35.122Z,59.08
2023-02-08T11:29:35.087Z,55.85
2023-02-08T11:30:35.122Z,57.18
2023-02-08T11:31:35.105Z,58.96
2023-02-08T11:32:35.065Z,54.27
2023-02-08T11:33:35.087Z,54.66
2023-02-08T11:34:35.045Z,55.49
2023-02-08T11:35:35.050Z,56.78
2023-02-08T11:36:35.097Z,54.33
2023-02-08T11:37:35.026Z,55.54
2023-02-08T11:38:35.076Z,56.59
2023-02-08T11:39:35.012Z,57.23
2023-02-08T11:40:35.012Z,56.59
2023-02-08T11:41:36.957Z,56.12
2023-02-08T11:42:35.034Z,55.62
2023-02-08T11:43:35.021Z,57.37
2023-02-08T11:44:34.980Z,59.91
2023-02-08T11:45:34.970Z,56.23
2023-02-08T11:46:34.990Z,58.25
2023-02-08T11:47:34.960Z,60.69
2023-02-08T11:48:34.976Z,58.47
2023-02-08T11:49:34.942Z,56.26
2023-02-08T11:50:34.930Z,56.37
2023-02-08T11:51:34.932Z,56.28
2023-02-08T11:52:34.912Z,57.36
2023-02-08T11:53:34.966Z,51.71
2023-02-08T11:54:34.900Z,59.20
2023-02-08T11:55:34.916Z,55.23
2023-02-08T11:56:34.896Z,54.52
2023-02-08T11:57:34.892Z,59.88
2023-02-08T11:58:34.897Z,54.06
2023-02-08T11:59:34.865Z,54.53
2023-02-08T12:00:34.869Z,55.68
2023-02-08T12:01:34.961Z,54.01
2023-02-08T12:02:34.861Z,57.09
2023-02-08T12:03:34.936Z,54.18
2023-02-08T12:04:34.833Z,60.57
2023-02-08T12:05:34.829Z,57.74
2023-02-08T12:06:34.825Z,56.74
2023-02-08T12:07:34.816Z,54.13
2023-02-08T12:08:34.832Z,55.18
2023-02-08T12:09:35.971Z,54.13
2023-02-08T12:10:34.788Z,58.25
2023-02-08T12:11:34.797Z,55.54
2023-02-08T12:12:34.775Z,57.57
2023-02-08T12:13:34.766Z,57.77
2023-02-08T12:14:34.779Z,57.32
2023-02-08T12:15:36.994Z,56.46
2023-02-08T12:16:35.798Z,59.02
2023-02-08T12:17:34.765Z,57.15
2023-02-08T12:18:34.760Z,57.47
2023-02-08T12:19:34.783Z,61.79
2023-02-08T12:20:34.733Z,58.26
2023-02-08T12:21:34.707Z,59.32
2023-02-08T12:22:34.702Z,56.80
2023-02-08T12:23:34.698Z,55.97
2023-02-08T12:24:34.711Z,59.35
2023-02-08T12:25:34.674Z,58.16
2023-02-08T12:26:34.707Z,56.98
2023-02-08T12:27:34.670Z,54.94
2023-02-08T12:28:34.683Z,56.87
2023-02-08T12:29:46.929Z,62.01
2023-02-08T12:30:36.659Z,62.18
2023-02-08T12:31:34.685Z,61.64
2023-02-08T12:32:34.627Z,60.81
2023-02-08T12:33:34.636Z,61.15
2023-02-08T12:34:34.633Z,60.87
2023-02-08T12:35:43.550Z,61.63
2023-02-08T12:36:36.618Z,60.93
2023-02-08T12:37:34.607Z,60.77
2023-02-08T12:38:34.567Z,61.28
2023-02-08T12:39:34.592Z,61.76
2023-02-08T12:40:34.558Z,61.82
2023-02-08T12:41:34.551Z,61.30
2023-02-08T12:42:34.540Z,60.89
2023-02-08T12:43:34.536Z,61.14
2023-02-08T12:44:34.565Z,60.80
2023-02-08T12:45:34.523Z,60.59
2023-02-08T12:46:34.558Z,62.78
2023-02-08T12:47:34.508Z,59.82
2023-02-08T12:48:34.528Z,55.24
2023-02-08T12:49:34.515Z,56.98
2023-02-08T12:50:34.496Z,56.63
2023-02-08T12:51:34.489Z,56.36
2023-02-08T12:52:34.462Z,55.91
2023-02-08T12:53:34.464Z,58.98
2023-02-08T12:54:34.495Z,55.70